Time;durP1;ratioP1;P1;durP2;ratioP2;P2;SDS_P1;SDS_P2;PMS_P1;PMS_P2;Temp;Humidity;BMP_temperature;BMP_pressure;BME280_temperature;BME280_humidity;BME280_pressure;Samples;Min_cycle;Max_cycle;Signal;HPM_P1;HPM_P2
2021/12/25 00:00:19;;;;;;;16.33;8.48;;;;;;;9.95;100.00;98898.94;4957418;28;20054;-91
2021/12/25 00:02:57;;;;;;;14.68;7.93;;;;;;;10.19;100.00;98933.19;4975445;28;20026;-91
2021/12/25 00:05:22;;;;;;;13.95;7.75;;;;;;;10.07;100.00;98877.06;4974054;28;20108;-91
2021/12/25 00:07:48;;;;;;;15.75;8.20;;;;;;;10.23;100.00;98933.91;4972642;28;20030;-91
2021/12/25 00:10:14;;;;;;;12.90;7.68;;;;;;;9.91;100.00;98862.81;4974945;28;20030;-91
2021/12/25 00:12:39;;;;;;;14.02;7.93;;;;;;;9.87;100.00;98872.72;4958250;28;20062;-90
2021/12/25 00:15:05;;;;;;;18.02;8.10;;;;;;;10.42;100.00;98901.03;4955220;28;20031;-91
2021/12/25 00:17:32;;;;;;;16.40;7.45;;;;;;;10.57;100.00;98907.38;4965768;28;20123;-91
2021/12/25 00:19:57;;;;;;;17.45;8.18;;;;;;;10.69;100.00;98932.47;4974395;28;20479;-91
2021/12/25 00:22:23;;;;;;;16.55;8.18;;;;;;;10.79;100.00;98925.75;4958030;28;20030;-91
2021/12/25 00:24:49;;;;;;;16.17;7.82;;;;;;;10.33;100.00;98840.31;4974126;28;20031;-91
2021/12/25 00:32:47;;;;;;;17.50;8.90;;;;;;;10.63;100.00;98853.88;4975827;28;20061;-91
2021/12/25 00:35:13;;;;;;;14.13;8.02;;;;;;;10.84;100.00;98857.22;4971962;28;20035;-91
2021/12/25 00:37:39;;;;;;;15.80;8.57;;;;;;;10.79;100.00;98838.81;4953766;28;20553;-91
2021/12/25 00:40:06;;;;;;;15.10;8.52;;;;;;;11.25;100.00;98917.13;4973461;28;20394;-90
2021/12/25 00:42:31;;;;;;;14.90;8.10;;;;;;;10.72;100.00;98804.66;4973669;28;20066;-91
2021/12/25 00:44:57;;;;;;;17.05;8.57;;;;;;;11.43;100.00;98921.47;4973163;28;20050;-90
2021/12/25 00:47:22;;;;;;;16.85;8.10;;;;;;;11.45;100.00;98914.28;4962768;28;20027;-91
2021/12/25 00:49:48;;;;;;;17.63;7.78;;;;;;;11.41;100.00;98918.91;4972109;28;20090;-91
2021/12/25 00:52:14;;;;;;;18.58;9.85;;;;;;;11.12;100.00;98855.69;4956091;28;20045;-90
2021/12/25 00:54:40;;;;;;;21.50;17.15;;;;;;;10.96;100.00;98819.31;4975422;28;20031;-91
2021/12/25 00:57:05;;;;;;;21.88;15.98;;;;;;;10.95;100.00;98850.41;4970497;28;20038;-91
2021/12/25 00:59:31;;;;;;;17.67;11.70;;;;;;;11.24;100.00;98902.06;4972150;28;20105;-91
2021/12/25 01:01:58;;;;;;;15.90;8.88;;;;;;;10.99;100.00;98856.44;4971582;28;20107;-91
2021/12/25 01:04:24;;;;;;;17.50;9.05;;;;;;;11.43;100.00;98917.00;4970887;28;20031;-91
2021/12/25 01:06:49;;;;;;;17.30;9.05;;;;;;;11.29;100.00;98897.38;4970234;28;20038;-91
2021/12/25 01:09:15;;;;;;;15.75;8.52;;;;;;;11.47;100.00;98912.38;4971011;28;20072;-91
2021/12/25 01:11:42;;;;;;;18.15;8.68;;;;;;;11.47;100.00;98920.34;4972418;28;20043;-91
2021/12/25 01:14:19;;;;;;;12.43;7.22;;;;;;;11.05;100.00;98840.13;4969511;28;20011;-91
2021/12/25 01:24:42;;;;;;;17.65;8.38;;;;;;;10.85;100.00;98894.38;4975323;28;20110;-91
2021/12/25 01:29:49;;;;;;;17.15;7.05;;;;;;;10.67;100.00;98855.44;4972434;28;20035;-91
2021/12/25 01:40:13;;;;;;;15.52;8.32;;;;;;;10.75;100.00;98873.66;4972588;28;20035;-90
2021/12/25 01:48:19;;;;;;;12.10;6.68;;;;;;;10.83;100.00;98879.44;4971188;28;20037;-90
2021/12/25 01:50:45;;;;;;;12.82;7.53;;;;;;;10.90;100.00;98902.13;4967289;28;20527;-91
2021/12/25 01:53:10;;;;;;;13.18;6.80;;;;;;;10.80;100.00;98887.56;4967555;28;20046;-90
2021/12/25 01:55:36;;;;;;;15.27;7.07;;;;;;;10.79;100.00;98876.06;4971279;28;20039;-90
2021/12/25 01:58:03;;;;;;;15.77;8.38;;;;;;;10.96;100.00;98909.78;4970396;28;20101;-91
2021/12/25 02:00:52;;;;;;;12.82;6.65;;;;;;;10.63;100.00;98852.06;4955309;28;20023;-91
2021/12/25 02:03:20;;;;;;;12.10;6.07;;;;;;;10.85;100.00;98888.19;4970973;28;20550;-90
2021/12/25 02:05:46;;;;;;;11.18;7.10;;;;;;;10.90;100.00;98904.78;4955689;28;20019;-91
2021/12/25 02:08:12;;;;;;;15.95;8.93;;;;;;;10.61;100.00;98856.59;4971939;28;20514;-91
2021/12/25 02:10:38;;;;;;;15.35;7.63;;;;;;;10.89;100.00;98900.41;4970734;28;20546;-90
2021/12/25 02:13:03;;;;;;;12.82;7.05;;;;;;;10.76;100.00;98888.69;4970555;28;20023;-90
2021/12/25 02:15:30;;;;;;;13.98;6.53;;;;;;;10.89;100.00;98919.03;4964808;28;20035;-90
2021/12/25 02:18:17;;;;;;;12.90;8.45;;;;;;;10.74;100.00;98918.00;4951390;29;20019;-91
2021/12/25 02:21:02;;;;;;;16.40;8.68;;;;;;;10.74;100.00;98941.09;4964285;28;20090;-90
2021/12/25 02:23:27;;;;;;;16.23;7.80;;;;;;;10.49;100.00;98915.72;4972615;28;20542;-91
2021/12/25 02:25:55;;;;;;;19.52;9.27;;;;;;;10.55;100.00;98906.56;4954832;28;20030;-91
2021/12/25 02:28:22;;;;;;;14.85;8.55;;;;;;;10.68;100.00;98920.97;4954612;28;20022;-91
2021/12/25 02:30:51;;;;;;;15.60;7.70;;;;;;;10.80;100.00;98936.31;4973624;28;20027;-91
2021/12/25 02:33:16;;;;;;;22.17;12.55;;;;;;;10.57;100.00;98913.56;4987781;28;20463;-92
2021/12/25 02:35:43;;;;;;;18.60;8.68;;;;;;;10.81;100.00;98922.06;4965236;28;20126;-91
2021/12/25 02:38:09;;;;;;;19.05;10.13;;;;;;;10.43;100.00;98868.16;4975424;28;20502;-91
2021/12/25 02:40:34;;;;;;;19.65;10.35;;;;;;;10.72;100.00;98917.25;4958036;28;20031;-91
2021/12/25 02:43:01;;;;;;;20.48;10.73;;;;;;;10.82;100.00;98934.44;4958449;28;20042;-91
2021/12/25 02:45:27;;;;;;;18.55;10.18;;;;;;;10.66;100.00;98901.56;4961582;28;20033;-90
2021/12/25 02:47:55;;;;;;;23.83;11.68;;;;;;;10.71;100.00;98920.81;4974123;28;20034;-91
2021/12/25 02:50:30;;;;;;;23.33;10.68;;;;;;;10.79;100.00;98912.47;4970857;28;20578;-91
2021/12/25 02:52:58;;;;;;;22.20;11.32;;;;;;;10.61;100.00;98888.50;4972988;28;20446;-91
2021/12/25 02:55:25;;;;;;;24.55;13.13;;;;;;;10.81;100.00;98911.44;4973160;28;20051;-91
2021/12/25 02:57:52;;;;;;;24.48;11.23;;;;;;;10.43;100.00;98846.91;4958142;28;20031;-90
2021/12/25 03:00:21;;;;;;;20.90;11.15;;;;;;;10.30;100.00;98824.53;4970184;28;20119;-91
2021/12/25 03:02:47;;;;;;;22.05;11.68;;;;;;;10.64;100.00;98883.03;4955433;29;20019;-91
2021/12/25 03:05:12;;;;;;;25.25;11.63;;;;;;;10.74;100.00;98869.28;4962448;28;20479;-91
2021/12/25 03:07:38;;;;;;;21.65;11.43;;;;;;;10.70;100.00;98849.09;4975056;28;20022;-91
2021/12/25 03:10:07;;;;;;;19.50;10.75;;;;;;;10.68;100.00;98870.44;4973359;28;20051;-91
2021/12/25 03:12:47;;;;;;;21.00;10.45;;;;;;;10.72;100.00;98874.69;4950278;28;20126;-91
2021/12/25 03:15:16;;;;;;;24.60;11.40;;;;;;;10.61;100.00;98861.91;4973116;28;20089;-90
2021/12/25 03:17:42;;;;;;;21.77;10.85;;;;;;;10.53;100.00;98840.19;4963867;28;20018;-91
2021/12/25 03:20:10;;;;;;;23.75;11.57;;;;;;;10.67;100.00;98849.25;4977499;28;20027;-91
2021/12/25 03:22:37;;;;;;;21.23;11.30;;;;;;;10.76;100.00;98860.28;4987668;28;20031;-91
2021/12/25 03:25:07;;;;;;;23.00;12.38;;;;;;;10.61;100.00;98850.41;4973731;28;20403;-91
2021/12/25 03:27:38;;;;;;;25.35;12.48;;;;;;;10.64;100.00;98868.91;4972386;28;20497;-91
2021/12/25 03:30:06;;;;;;;22.15;10.80;;;;;;;10.74;100.00;98890.56;4975064;28;20474;-90
2021/12/25 03:32:31;;;;;;;23.67;12.73;;;;;;;10.54;100.00;98855.19;4972797;28;20023;-91
2021/12/25 03:34:56;;;;;;;24.60;12.55;;;;;;;10.55;100.00;98846.28;4975799;28;20576;-91
2021/12/25 03:37:22;;;;;;;26.85;13.25;;;;;;;10.55;100.00;98851.59;4969852;28;20034;-91
2021/12/25 03:39:48;;;;;;;28.55;12.15;;;;;;;10.64;100.00;98872.41;4956114;28;20051;-91
2021/12/25 03:42:13;;;;;;;23.38;11.57;;;;;;;10.39;100.00;98824.06;4965937;28;20033;-91
2021/12/25 03:44:38;;;;;;;19.77;11.80;;;;;;;10.23;100.00;98801.03;4957358;28;20046;-91
2021/12/25 03:47:14;;;;;;;24.10;12.50;;;;;;;10.58;100.00;98859.44;4974687;28;20062;-91
2021/12/25 03:57:56;;;;;;;24.67;12.07;;;;;;;10.74;100.00;98850.66;4975103;28;20041;-91
2021/12/25 04:00:30;;;;;;;29.50;13.82;;;;;;;10.46;100.00;98825.47;4963622;28;20026;-91
2021/12/25 04:03:01;;;;;;;32.20;13.90;;;;;;;10.57;100.00;98820.50;4973432;28;20027;-91
2021/12/25 04:05:30;;;;;;;29.27;12.55;;;;;;;10.67;100.00;98830.63;4956852;28;20173;-91
2021/12/25 04:10:22;;;;;;;28.75;14.23;;;;;;;10.60;100.00;98833.63;4965542;28;20041;-90
2021/12/25 04:12:47;;;;;;;27.08;18.85;;;;;;;10.55;100.00;98819.72;4957287;28;20126;-91
2021/12/25 04:15:13;;;;;;;22.55;13.10;;;;;;;10.24;100.00;98777.03;4957208;28;20045;-91
2021/12/25 04:17:38;;;;;;;22.10;13.48;;;;;;;10.74;100.00;98853.31;4953638;28;20031;-91
2021/12/25 04:20:04;;;;;;;21.13;12.07;;;;;;;10.52;100.00;98819.88;4969894;28;20447;-91
2021/12/25 04:22:40;;;;;;;38.47;24.60;;;;;;;10.59;100.00;98831.88;4972103;28;20102;-91
2021/12/25 04:25:06;;;;;;;57.75;42.65;;;;;;;10.79;100.00;98859.28;4965361;28;20462;-91
2021/12/25 04:27:32;;;;;;;56.22;31.45;;;;;;;10.75;100.00;98852.38;4955623;28;20031;-91
2021/12/25 04:30:17;;;;;;;54.35;35.42;;;;;;;10.80;100.00;98855.66;4956178;28;20093;-91
2021/12/25 04:50:07;;;;;;;84.57;54.63;;;;;;;10.60;100.00;98844.25;4950151;28;20004;-91
2021/12/25 05:06:00;;;;;;;33.88;20.58;;;;;;;10.38;100.00;98819.69;4973792;28;19914;-91
2021/12/25 05:08:25;;;;;;;100.55;60.95;;;;;;;10.24;100.00;98798.28;4958138;28;20531;-91
2021/12/25 05:10:50;;;;;;;109.15;64.80;;;;;;;10.50;100.00;98848.31;4959128;28;20062;-91
2021/12/25 05:13:16;;;;;;;99.22;67.13;;;;;;;10.24;100.00;98803.59;4973165;28;20023;-91
2021/12/25 05:15:42;;;;;;;86.82;60.05;;;;;;;10.20;100.00;98812.66;4973005;28;20053;-91
2021/12/25 05:18:07;;;;;;;44.78;34.20;;;;;;;9.97;100.00;98769.53;4967448;28;20487;-91
2021/12/25 05:20:33;;;;;;;47.92;31.83;;;;;;;10.27;100.00;98830.03;4980502;28;20030;-91
2021/12/25 05:22:58;;;;;;;46.78;33.97;;;;;;;10.29;100.00;98832.59;4962925;28;20074;-91
2021/12/25 05:25:24;;;;;;;41.50;28.58;;;;;;;10.33;100.00;98836.81;4971939;28;20037;-91
2021/12/25 05:27:50;;;;;;;25.92;18.17;;;;;;;10.25;100.00;98829.22;4972404;28;20039;-90
2021/12/25 05:30:18;;;;;;;31.63;15.50;;;;;;;10.41;100.00;98848.78;4971658;28;20578;-91
2021/12/25 05:32:44;;;;;;;25.95;12.50;;;;;;;10.32;100.00;98843.06;4971548;28;20031;-90
2021/12/25 05:35:10;;;;;;;21.80;10.65;;;;;;;10.25;100.00;98837.19;4960506;28;20115;-91
2021/12/25 05:37:36;;;;;;;24.55;11.30;;;;;;;10.36;100.00;98856.13;4943998;28;20110;-91
2021/12/25 05:40:04;;;;;;;20.75;11.00;;;;;;;10.41;100.00;98875.34;4972011;28;20019;-90
2021/12/25 05:42:30;;;;;;;25.55;12.65;;;;;;;10.33;100.00;98872.22;4951824;28;20027;-90
2021/12/25 05:44:56;;;;;;;23.50;10.63;;;;;;;10.14;100.00;98839.53;4961265;28;20035;-90
2021/12/25 05:47:21;;;;;;;22.77;10.45;;;;;;;10.34;100.00;98873.97;4956454;28;20023;-91
2021/12/25 05:49:47;;;;;;;20.77;11.38;;;;;;;10.38;100.00;98880.84;4968001;28;20031;-90
2021/12/25 05:52:13;;;;;;;22.48;11.20;;;;;;;10.37;100.00;98876.47;4967224;28;20398;-91
2021/12/25 05:54:38;;;;;;;20.83;12.27;;;;;;;10.19;100.00;98853.47;4962640;28;20034;-91
2021/12/25 05:57:04;;;;;;;23.80;11.00;;;;;;;10.21;100.00;98870.16;4971328;28;20034;-90
2021/12/25 05:59:29;;;;;;;22.00;11.25;;;;;;;10.24;100.00;98861.19;4972198;28;20650;-91
2021/12/25 06:01:55;;;;;;;22.42;11.07;;;;;;;10.22;100.00;98858.63;4946430;28;20042;-90
2021/12/25 06:04:21;;;;;;;23.42;11.52;;;;;;;10.27;100.00;98867.22;4955103;28;20037;-90
2021/12/25 06:06:46;;;;;;;22.10;10.80;;;;;;;10.22;100.00;98858.63;4956423;28;20030;-90
2021/12/25 06:09:12;;;;;;;23.63;11.75;;;;;;;10.18;100.00;98857.03;4966710;28;20049;-90
2021/12/25 06:11:38;;;;;;;20.98;10.93;;;;;;;10.20;100.00;98860.47;4974986;28;20034;-91
2021/12/25 06:14:17;;;;;;;20.45;11.00;;;;;;;10.34;100.00;98887.25;4958468;28;20022;-90
2021/12/25 06:16:43;;;;;;;19.30;11.50;;;;;;;10.25;100.00;98862.91;4962094;28;20046;-90
2021/12/25 06:19:09;;;;;;;19.15;9.93;;;;;;;10.20;100.00;98860.47;4972306;28;20106;-91
2021/12/25 06:21:34;;;;;;;23.40;10.85;;;;;;;10.06;100.00;98844.34;4974775;28;20150;-91
2021/12/25 06:24:02;;;;;;;20.73;10.93;;;;;;;10.29;100.00;98886.63;4975873;28;20039;-91
2021/12/25 06:26:28;;;;;;;22.25;11.60;;;;;;;10.16;100.00;98874.00;4964509;28;20031;-91
2021/12/25 06:28:55;;;;;;;21.15;11.48;;;;;;;10.04;100.00;98854.19;4954512;29;20487;-90
2021/12/25 06:31:21;;;;;;;21.45;10.70;;;;;;;10.16;100.00;98874.88;4956181;29;20035;-90
2021/12/25 06:33:46;;;;;;;19.05;11.32;;;;;;;10.05;100.00;98866.50;4968439;28;20022;-90
2021/12/25 06:36:12;;;;;;;20.08;10.20;;;;;;;9.65;100.00;98812.75;4958881;28;20032;-91
2021/12/25 06:38:40;;;;;;;26.63;10.68;;;;;;;9.60;100.00;98805.00;4956799;28;20114;-91
2021/12/25 06:41:07;;;;;;;19.88;10.60;;;;;;;10.10;100.00;98885.78;4958138;28;20093;-91
2021/12/25 06:43:33;;;;;;;21.27;11.43;;;;;;;10.22;100.00;98901.13;4969149;28;20043;-91
2021/12/25 06:46:00;;;;;;;21.23;10.63;;;;;;;10.23;100.00;98897.53;4956603;29;20023;-91
2021/12/25 06:48:26;;;;;;;19.73;11.60;;;;;;;9.93;100.00;98850.31;4939050;29;20463;-91
2021/12/25 06:50:52;;;;;;;22.15;11.35;;;;;;;10.19;100.00;98895.09;4974205;28;20035;-91
2021/12/25 06:53:18;;;;;;;23.00;12.88;;;;;;;10.03;100.00;98879.00;4958301;28;20031;-91
2021/12/25 06:55:43;;;;;;;23.33;10.82;;;;;;;10.06;100.00;98880.66;4975366;28;20027;-90
2021/12/25 06:58:09;;;;;;;20.30;10.85;;;;;;;9.74;100.00;98839.72;4958700;28;20015;-90
2021/12/25 07:00:34;;;;;;;20.73;10.23;;;;;;;9.86;100.00;98828.50;4975201;28;20081;-91
2021/12/25 07:03:01;;;;;;;23.33;11.38;;;;;;;10.08;100.00;98871.69;4958456;28;20030;-91
2021/12/25 07:05:26;;;;;;;20.60;11.57;;;;;;;10.12;100.00;98877.72;4975382;28;20018;-91
2021/12/25 07:07:52;;;;;;;19.98;11.05;;;;;;;10.42;100.00;98866.47;4976119;28;20104;-91
2021/12/25 07:10:19;;;;;;;32.83;11.57;;;;;;;9.98;100.00;98821.75;4973885;28;20035;-91
2021/12/25 07:12:47;;;;;;;35.17;13.15;;;;;;;10.09;100.00;98868.13;4971143;28;20034;-90
2021/12/25 07:15:15;;;;;;;20.45;10.43;;;;;;;10.26;100.00;98901.84;4958090;28;20027;-91
2021/12/25 07:17:41;;;;;;;19.90;10.57;;;;;;;10.13;100.00;98887.44;4974837;28;20026;-91
2021/12/25 07:20:07;;;;;;;20.40;10.20;;;;;;;10.06;100.00;98884.19;4960840;28;20023;-91
2021/12/25 07:22:33;;;;;;;24.13;11.40;;;;;;;9.65;100.00;98796.81;4974605;28;20453;-90
2021/12/25 07:24:58;;;;;;;21.85;10.63;;;;;;;10.24;100.00;98920.53;4972238;28;20049;-90
2021/12/25 07:27:24;;;;;;;21.30;10.63;;;;;;;9.83;100.00;98855.22;4983293;28;20497;-91
2021/12/25 07:29:50;;;;;;;23.67;11.20;;;;;;;10.09;100.00;98905.31;4960584;28;20035;-90
2021/12/25 07:32:15;;;;;;;20.80;11.98;;;;;;;9.90;100.00;98880.53;4956163;28;20071;-90
2021/12/25 07:34:45;;;;;;;25.45;14.45;;;;;;;9.89;100.00;98884.13;4958072;28;20030;-91
2021/12/25 07:37:13;;;;;;;21.88;12.10;;;;;;;10.17;100.00;98916.44;4956577;28;20081;-91
2021/12/25 07:39:40;;;;;;;23.42;11.85;;;;;;;9.99;100.00;98887.19;4977109;28;20053;-91
2021/12/25 07:42:05;;;;;;;19.92;10.93;;;;;;;9.81;100.00;98857.09;4972848;28;20494;-91
2021/12/25 07:44:31;;;;;;;25.52;13.35;;;;;;;9.97;100.00;98889.94;4957141;28;20042;-90
2021/12/25 07:46:57;;;;;;;24.38;13.20;;;;;;;10.23;100.00;98928.59;4972843;28;20023;-90
2021/12/25 07:49:22;;;;;;;22.00;12.18;;;;;;;10.19;100.00;98933.19;4973413;28;20026;-91
2021/12/25 07:51:48;;;;;;;29.13;13.88;;;;;;;10.12;100.00;98918.47;4947939;28;20027;-91
2021/12/25 07:54:14;;;;;;;30.90;16.27;;;;;;;10.08;100.00;98906.25;4956483;28;20031;-90
2021/12/25 07:56:40;;;;;;;25.67;14.45;;;;;;;10.10;100.00;98912.34;4975920;28;20115;-91
2021/12/25 07:59:07;;;;;;;26.58;15.18;;;;;;;10.20;100.00;98944.66;4974530;28;20534;-91
2021/12/25 08:01:35;;;;;;;21.83;14.00;;;;;;;10.11;100.00;98906.13;4958111;28;20066;-91
2021/12/25 08:06:34;;;;;;;23.60;11.93;;;;;;;10.25;100.00;98938.19;5002906;28;20434;-67
2021/12/25 08:09:01;;;;;;;24.08;13.07;;;;;;;10.26;100.00;98939.91;4990918;28;20029;-67
2021/12/25 08:11:28;;;;;;;25.10;13.85;;;;;;;10.33;100.00;98936.00;4992653;28;20022;-68
2021/12/25 08:13:54;;;;;;;31.02;13.68;;;;;;;10.37;100.00;98940.25;4992199;28;20022;-68
2021/12/25 08:16:19;;;;;;;24.42;13.80;;;;;;;10.37;100.00;98940.25;4990281;28;20022;-68
2021/12/25 08:18:45;;;;;;;23.75;11.23;;;;;;;10.35;100.00;98939.47;5000100;28;20033;-68
2021/12/25 08:21:11;;;;;;;22.05;11.27;;;;;;;10.38;100.00;98949.06;4991465;28;20026;-68
2021/12/25 08:23:36;;;;;;;22.90;12.25;;;;;;;10.38;100.00;98944.63;4991318;28;20030;-68
2021/12/25 08:26:04;;;;;;;24.80;12.77;;;;;;;10.37;100.00;98942.91;4992283;28;20030;-68
2021/12/25 08:28:32;;;;;;;21.23;11.95;;;;;;;10.77;100.00;98946.25;4993018;28;20102;-67
2021/12/25 08:30:59;;;;;;;23.17;12.60;;;;;;;10.56;100.00;98948.16;4973807;28;20041;-68
2021/12/25 08:33:25;;;;;;;31.63;14.32;;;;;;;10.59;100.00;98940.06;4992215;28;20094;-69
2021/12/25 08:35:50;;;;;;;22.63;11.80;;;;;;;10.53;100.00;98948.31;4992357;28;20517;-69
2021/12/25 08:38:16;;;;;;;27.58;13.18;;;;;;;10.49;100.00;98949.44;5008429;28;20104;-69
2021/12/25 08:40:43;;;;;;;26.17;12.57;;;;;;;10.52;100.00;98951.94;5010310;28;20029;-69
2021/12/25 08:43:08;;;;;;;19.38;12.10;;;;;;;10.52;100.00;98946.63;4993876;28;20030;-69
2021/12/25 08:45:49;;;;;;;28.42;12.85;;;;;;;10.64;100.00;98951.34;5005001;28;20034;-69
2021/12/25 08:48:24;;;;;;;24.90;12.13;;;;;;;10.60;100.00;98955.94;4990636;28;20080;-69
2021/12/25 08:50:52;;;;;;;20.90;10.75;;;;;;;10.62;100.00;98958.53;4994049;28;20034;-69
2021/12/25 08:53:20;;;;;;;22.88;10.73;;;;;;;10.55;100.00;98952.66;4991030;28;20014;-69
2021/12/25 08:55:47;;;;;;;21.13;11.57;;;;;;;10.68;100.00;98965.31;4973104;28;20037;-69
2021/12/25 08:58:14;;;;;;;23.45;10.80;;;;;;;10.57;100.00;98969.41;4992620;28;20034;-69
2021/12/25 09:00:40;;;;;;;19.95;10.40;;;;;;;10.64;100.00;98956.66;4993347;28;20560;-69
2021/12/25 09:03:06;;;;;;;21.83;12.90;;;;;;;10.54;100.00;98956.22;5002602;28;20036;-69
2021/12/25 09:05:32;;;;;;;20.88;11.20;;;;;;;10.93;100.00;98958.69;5009930;28;20046;-69
2021/12/25 09:07:58;;;;;;;23.10;13.30;;;;;;;11.01;100.00;98960.97;5010896;28;20108;-69
2021/12/25 09:10:23;;;;;;;27.80;12.57;;;;;;;10.76;100.00;98965.81;5006504;28;20117;-69
2021/12/25 09:12:50;;;;;;;24.40;12.85;;;;;;;10.70;100.00;98972.28;4993252;28;20026;-69
2021/12/25 09:15:16;;;;;;;21.45;11.98;;;;;;;10.68;100.00;98973.28;4999354;28;20029;-69
2021/12/25 09:17:42;;;;;;;24.75;12.40;;;;;;;10.70;100.00;98971.41;4990258;28;20026;-69
2021/12/25 09:20:09;;;;;;;21.65;11.50;;;;;;;10.73;100.00;98979.25;4990995;28;20032;-68
2021/12/25 09:22:34;;;;;;;20.38;12.27;;;;;;;10.74;100.00;98973.00;5006471;28;20073;-68
2021/12/25 09:25:00;;;;;;;21.77;12.65;;;;;;;10.79;100.00;98984.28;4985301;28;20060;-68
2021/12/25 09:27:26;;;;;;;20.83;12.23;;;;;;;11.21;100.00;98987.41;5006620;28;20038;-68
2021/12/25 09:29:51;;;;;;;20.08;11.57;;;;;;;11.20;100.00;98969.75;4989698;28;20367;-68
2021/12/25 09:32:17;;;;;;;19.38;11.48;;;;;;;10.91;100.00;98980.97;4990131;28;20022;-68
2021/12/25 09:34:42;;;;;;;28.85;15.00;;;;;;;10.93;100.00;98990.63;4992665;28;20041;-68
2021/12/25 09:37:08;;;;;;;28.10;17.58;;;;;;;11.00;100.00;98986.72;4990062;28;20458;-68
2021/12/25 09:39:34;;;;;;;28.20;17.73;;;;;;;11.06;100.00;98993.53;4992207;28;20037;-68
2021/12/25 09:42:03;;;;;;;26.65;16.35;;;;;;;11.06;100.00;98985.53;4991149;28;20026;-68
2021/12/25 09:44:28;;;;;;;28.63;15.98;;;;;;;11.08;100.00;98989.00;4999188;28;20054;-68
2021/12/25 09:46:54;;;;;;;24.48;16.00;;;;;;;11.09;100.00;98996.03;4989851;28;20540;-68
2021/12/25 09:49:19;;;;;;;22.52;14.18;;;;;;;11.08;100.00;98989.00;4990249;28;20109;-68
2021/12/25 09:51:45;;;;;;;23.20;13.93;;;;;;;11.02;100.00;98981.31;4991366;28;20105;-68
2021/12/25 09:54:15;;;;;;;25.55;15.88;;;;;;;11.02;100.00;98978.66;4990856;28;20030;-68
2021/12/25 09:56:42;;;;;;;25.73;16.83;;;;;;;11.10;100.00;98995.97;4992402;28;20034;-68
2021/12/25 09:59:12;;;;;;;23.25;13.82;;;;;;;11.07;100.00;98985.44;4994191;28;20054;-68
2021/12/25 10:01:49;;;;;;;25.35;14.68;;;;;;;11.14;100.00;98992.19;4989882;28;20494;-68
2021/12/25 10:04:38;;;;;;;25.73;14.07;;;;;;;11.22;100.00;98992.66;4990354;28;20023;-68
2021/12/25 10:07:16;;;;;;;22.50;11.75;;;;;;;11.21;100.00;98990.94;4992010;28;20038;-68
2021/12/25 10:09:41;;;;;;;23.05;13.23;;;;;;;11.21;100.00;98995.41;4988800;28;20030;-68
2021/12/25 10:12:13;;;;;;;24.67;13.90;;;;;;;11.16;100.00;98997.44;4989528;28;20033;-68
2021/12/25 10:14:42;;;;;;;20.20;11.52;;;;;;;11.16;100.00;98992.13;4990256;28;20478;-68
2021/12/25 10:17:12;;;;;;;18.80;10.43;;;;;;;11.12;100.00;98985.25;4991609;28;20034;-68
2021/12/25 10:19:38;;;;;;;18.88;10.40;;;;;;;11.16;100.00;98986.78;4988054;28;20037;-68
2021/12/25 10:22:07;;;;;;;31.77;13.70;;;;;;;11.19;100.00;98986.63;4989401;28;20390;-68
2021/12/25 10:24:41;;;;;;;21.42;11.85;;;;;;;11.15;100.00;98979.75;4989912;28;20122;-68
2021/12/25 10:27:11;;;;;;;;;;;;;;;11.23;100.00;98982.88;4992047;28;20533;-68
2021/12/25 10:29:36;;;;;;;20.23;11.90;;;;;;;11.20;100.00;98978.56;4989733;28;19956;-67
2021/12/25 10:32:24;;;;;;;25.42;14.52;;;;;;;11.21;100.00;98979.44;4991522;28;20018;-67
2021/12/25 10:34:51;;;;;;;27.95;14.27;;;;;;;11.32;100.00;98982.38;4988887;28;20054;-68
2021/12/25 10:37:19;;;;;;;26.90;14.45;;;;;;;11.31;100.00;98973.56;4994256;28;20026;-68
2021/12/25 10:39:46;;;;;;;23.13;12.68;;;;;;;11.27;100.00;98973.78;5006013;28;20041;-67
2021/12/25 10:42:19;;;;;;;23.30;11.65;;;;;;;11.22;100.00;98960.72;4988202;28;20029;-67
2021/12/25 10:44:58;;;;;;;23.00;13.88;;;;;;;11.28;100.00;98956.88;4988719;28;20018;-67
2021/12/25 10:47:28;;;;;;;22.67;12.45;;;;;;;11.33;100.00;98962.84;4992367;28;20034;-67
2021/12/25 10:49:56;;;;;;;22.85;12.93;;;;;;;11.38;100.00;98956.31;4989064;28;20034;-67
2021/12/25 10:52:40;;;;;;;32.83;16.67;;;;;;;11.31;100.00;98954.06;4992791;28;20053;-67
2021/12/25 10:55:16;;;;;;;28.00;15.52;;;;;;;11.37;100.00;98948.41;4978457;28;20018;-67
2021/12/25 10:57:49;;;;;;;30.50;16.38;;;;;;;11.45;100.00;98956.88;4997325;28;20397;-67
2021/12/25 11:00:29;;;;;;;31.13;17.63;;;;;;;11.52;100.00;98953.78;4991915;28;20026;-67
2021/12/25 11:03:04;;;;;;;28.75;12.98;;;;;;;11.49;100.00;98948.63;4999738;28;20018;-67
2021/12/25 11:05:32;;;;;;;21.45;12.35;;;;;;;11.52;100.00;98947.59;4990676;28;20470;-67
2021/12/25 11:08:03;;;;;;;23.92;12.88;;;;;;;11.55;100.00;98950.09;4994473;28;20030;-67
2021/12/25 11:10:30;;;;;;;25.58;15.80;;;;;;;11.66;100.00;98953.09;4993867;28;20072;-67
2021/12/25 11:12:59;;;;;;;23.58;15.05;;;;;;;11.64;100.00;98942.53;5007076;28;20072;-67
2021/12/25 11:15:29;;;;;;;29.95;17.13;;;;;;;11.81;100.00;98945.13;4994006;28;20065;-67
2021/12/25 11:18:05;;;;;;;25.98;14.60;;;;;;;11.94;100.00;98945.31;4974136;28;20081;-67
2021/12/25 11:20:34;;;;;;;25.73;11.57;;;;;;;12.05;100.00;98937.59;5001807;28;20034;-67
2021/12/25 11:23:02;;;;;;;18.40;9.85;;;;;;;12.02;100.00;98935.09;4974102;28;20483;-67
2021/12/25 11:25:29;;;;;;;20.20;9.93;;;;;;;12.13;100.00;98934.47;4974706;28;20404;-67
2021/12/25 11:27:56;;;;;;;21.38;9.82;;;;;;;12.26;100.00;98932.84;4994351;28;20077;-67
2021/12/25 11:30:24;;;;;;;19.58;8.90;;;;;;;12.30;100.00;98927.28;4992060;28;20065;-67
2021/12/25 11:32:52;;;;;;;20.83;8.77;;;;;;;12.38;100.00;98926.81;4991876;28;20097;-67
2021/12/25 11:35:19;;;;;;;20.17;8.80;;;;;;;12.71;100.00;98923.06;5000367;28;20026;-67
2021/12/25 11:37:46;;;;;;;15.23;7.97;;;;;;;12.90;100.00;98929.03;4996689;28;20489;-67
2021/12/25 11:40:13;;;;;;;20.85;9.15;;;;;;;13.00;100.00;98922.19;4993914;28;20062;-67
2021/12/25 11:42:45;;;;;;;17.35;8.70;;;;;;;13.02;100.00;98912.34;4993576;28;20030;-67
2021/12/25 11:45:14;;;;;;;18.15;8.23;;;;;;;13.08;100.00;98914.63;4994284;28;20425;-68
2021/12/25 11:47:45;;;;;;;20.40;8.07;;;;;;;13.05;100.00;98914.81;4998980;28;20448;-68
2021/12/25 11:50:13;;;;;;;18.85;8.65;;;;;;;13.12;100.00;98915.31;4973781;28;20034;-67
2021/12/25 11:52:55;;;;;;;16.08;8.30;;;;;;;13.06;100.00;98924.53;4993523;28;20030;-67
2021/12/25 12:00:36;;;;;;;16.70;9.68;;;;;;;12.47;100.00;98924.47;5009739;28;20033;-67
2021/12/25 12:03:02;;;;;;;14.20;8.40;;;;;;;12.49;100.00;98919.06;4990750;28;20030;-67
2021/12/25 12:05:31;;;;;;;17.08;8.52;;;;;;;12.57;100.00;98931.00;4991258;28;20357;-67
2021/12/25 12:08:06;;;;;;;19.63;9.00;;;;;;;12.63;100.00;98924.47;4991668;28;20023;-67
2021/12/25 12:11:00;;;;;;;18.45;9.52;;;;;;;12.50;100.00;98931.47;4994333;28;20038;-67
2021/12/25 12:13:32;;;;;;;15.73;9.52;;;;;;;12.53;100.00;98929.47;5005828;28;20116;-67
2021/12/25 12:16:03;;;;;;;18.15;9.25;;;;;;;12.74;100.00;98928.22;4996528;28;20037;-67
2021/12/25 12:18:35;;;;;;;18.42;9.52;;;;;;;12.77;100.00;98924.50;4992178;28;20084;-67
2021/12/25 12:21:11;;;;;;;19.45;9.30;;;;;;;12.59;100.00;98933.59;4991020;28;20036;-67
2021/12/25 12:26:11;;;;;;;16.90;9.77;;;;;;;13.03;100.00;98924.72;4992191;28;20394;-67
2021/12/25 12:28:47;;;;;;;16.58;9.02;;;;;;;13.08;100.00;98927.97;4993638;28;20034;-67
2021/12/25 12:31:35;;;;;;;18.42;9.27;;;;;;;13.06;100.00;98921.84;4991101;28;20518;-67
2021/12/25 12:34:01;;;;;;;17.30;8.38;;;;;;;13.01;100.00;98918.59;4992906;28;20394;-68
2021/12/25 12:36:27;;;;;;;17.50;9.45;;;;;;;12.95;100.00;98913.59;4990211;28;20498;-67